Time;durP1;ratioP1;P1;durP2;ratioP2;P2;SDS_P1;SDS_P2;PMS_P1;PMS_P2;Temp;Humidity;BMP_temperature;BMP_pressure;BME280_temperature;BME280_humidity;BME280_pressure;Samples;Min_cycle;Max_cycle;Signal;HPM_P1;HPM_P2
2022/07/23 00:01:27;;;;;;;5.73;4.47;;;;;;;29.92;35.50;98705.88;6922442;28;20267;-80
2022/07/23 00:04:48;;;;;;;5.83;4.67;;;;;;;29.77;36.03;98712.78;6922217;28;20219;-80
2022/07/23 00:08:10;;;;;;;4.93;4.53;;;;;;;29.49;36.61;98732.94;6921779;28;20243;-80
2022/07/23 00:11:33;;;;;;;4.83;4.43;;;;;;;29.60;36.41;98723.16;6922427;28;20265;-80
2022/07/23 00:14:54;;;;;;;5.00;4.50;;;;;;;29.17;36.68;98722.34;6922501;28;20202;-80
2022/07/23 00:18:16;;;;;;;6.97;4.93;;;;;;;29.35;36.03;98702.56;6922378;28;20216;-80
2022/07/23 00:21:38;;;;;;;4.93;4.47;;;;;;;29.56;35.32;98672.97;6922404;28;20257;-80
2022/07/23 00:24:59;;;;;;;5.10;4.50;;;;;;;29.61;35.56;98677.53;6922422;28;20214;-80
2022/07/23 00:28:22;;;;;;;5.17;4.10;;;;;;;29.46;35.74;98661.34;6941327;28;20241;-80
2022/07/23 00:31:44;;;;;;;4.33;3.93;;;;;;;29.30;34.97;98680.50;6948310;28;20234;-80
2022/07/23 00:35:06;;;;;;;4.23;3.83;;;;;;;29.60;34.10;98671.16;6949286;28;20207;-79
2022/07/23 00:38:27;;;;;;;3.73;3.43;;;;;;;29.19;34.68;98659.78;6948658;28;20237;-80
2022/07/23 00:41:49;;;;;;;4.23;3.57;;;;;;;29.64;33.57;98690.75;6949679;28;20247;-80
2022/07/23 00:45:13;;;;;;;4.80;3.43;;;;;;;29.76;33.06;98675.03;6948849;28;20209;-80
2022/07/23 00:48:34;;;;;;;3.73;3.40;;;;;;;29.57;33.69;98644.03;6948926;28;20269;-80
2022/07/23 00:51:57;;;;;;;4.03;3.60;;;;;;;29.71;34.63;98677.19;6949876;28;20238;-80
2022/07/23 00:55:19;;;;;;;3.60;3.30;;;;;;;29.05;35.11;98678.59;6949256;28;20237;-80
2022/07/23 00:58:41;;;;;;;4.03;3.63;;;;;;;29.54;34.66;98675.25;6948762;28;20686;-80
2022/07/23 01:02:04;;;;;;;3.60;3.30;;;;;;;29.57;34.34;98624.59;6949030;28;20242;-80
2022/07/23 01:05:26;;;;;;;4.00;3.57;;;;;;;29.68;33.67;98636.13;6949925;28;20203;-80
2022/07/23 01:08:47;;;;;;;3.83;3.27;;;;;;;29.62;34.46;98654.97;6949279;28;20292;-80
2022/07/23 01:12:09;;;;;;;3.50;3.20;;;;;;;29.13;34.78;98652.75;6948675;28;20295;-80
2022/07/23 01:15:31;;;;;;;3.70;3.40;;;;;;;29.15;34.80;98660.78;6949451;28;20213;-80
2022/07/23 01:18:54;;;;;;;5.13;3.30;;;;;;;29.21;34.72;98657.50;6949198;28;20203;-80
2022/07/23 01:22:19;;;;;;;3.50;3.20;;;;;;;29.19;35.10;98656.19;6949680;28;20224;-80
2022/07/23 01:25:50;;;;;;;3.77;3.47;;;;;;;29.35;34.97;98676.72;6949464;28;20286;-80
2022/07/23 01:29:11;;;;;;;3.60;3.30;;;;;;;29.28;34.85;98660.59;6949408;28;20195;-80
2022/07/23 01:32:33;;;;;;;3.50;3.20;;;;;;;29.12;34.57;98630.88;6948412;28;20374;-80
2022/07/23 01:35:54;;;;;;;3.80;3.20;;;;;;;28.56;36.10;98644.91;6950536;28;20316;-80
2022/07/23 01:39:16;;;;;;;4.60;3.33;;;;;;;28.98;35.52;98644.13;6948905;28;20208;-80
2022/07/23 01:42:39;;;;;;;4.80;3.50;;;;;;;28.93;35.25;98647.03;6949682;28;20227;-80
2022/07/23 01:46:01;;;;;;;3.40;3.10;;;;;;;28.54;36.31;98623.03;6954807;28;20237;-80
2022/07/23 01:49:22;;;;;;;4.80;3.53;;;;;;;28.86;35.59;98613.41;6954187;28;20231;-80
2022/07/23 01:52:44;;;;;;;3.50;3.20;;;;;;;29.09;35.34;98576.84;6954804;28;20704;-80
2022/07/23 01:56:05;;;;;;;3.40;3.10;;;;;;;29.15;35.28;98600.50;6955178;28;20668;-80
2022/07/23 01:59:28;;;;;;;3.47;3.17;;;;;;;29.39;35.17;98624.94;6954092;28;20233;-80
2022/07/23 02:02:50;;;;;;;3.70;3.40;;;;;;;29.18;35.84;98637.91;6955023;28;20708;-80
2022/07/23 02:06:12;;;;;;;4.00;3.60;;;;;;;28.88;36.61;98619.44;6954795;28;20290;-79
2022/07/23 02:09:34;;;;;;;3.83;3.43;;;;;;;28.81;36.76;98621.91;6955062;28;20238;-80
2022/07/23 02:12:56;;;;;;;4.10;3.73;;;;;;;28.47;37.51;98641.31;6955375;28;20293;-81
2022/07/23 02:16:19;;;;;;;3.77;3.47;;;;;;;28.79;37.38;98654.72;6954680;28;20343;-80
2022/07/23 02:19:40;;;;;;;3.50;3.30;;;;;;;28.66;37.29;98652.94;6954845;28;20213;-80
2022/07/23 02:23:02;;;;;;;4.40;4.10;;;;;;;27.97;39.10;98654.75;6954541;28;20229;-80
2022/07/23 02:26:23;;;;;;;4.33;3.93;;;;;;;28.43;38.19;98673.63;6954461;28;20334;-80
2022/07/23 02:29:45;;;;;;;4.53;3.90;;;;;;;28.41;37.91;98648.16;6950358;28;20364;-80
2022/07/23 02:33:08;;;;;;;4.50;3.80;;;;;;;29.18;36.82;98685.91;6954176;28;20280;-80
2022/07/23 02:36:30;;;;;;;4.10;3.73;;;;;;;29.31;36.44;98693.25;6954671;28;20220;-80
2022/07/23 02:39:51;;;;;;;3.80;3.50;;;;;;;29.13;37.14;98699.97;6954944;28;20200;-80
2022/07/23 02:43:13;;;;;;;4.57;4.17;;;;;;;29.31;36.62;98698.00;6956022;28;20225;-80
2022/07/23 02:46:37;;;;;;;4.10;3.70;;;;;;;28.99;37.26;98699.34;6956087;28;20207;-80
2022/07/23 02:50:00;;;;;;;3.80;3.50;;;;;;;27.90;39.22;98682.06;6955890;28;20220;-80
2022/07/23 02:53:21;;;;;;;4.23;3.83;;;;;;;28.01;39.69;98719.47;6963961;28;20233;-80
2022/07/23 02:56:43;;;;;;;4.93;3.87;;;;;;;27.74;40.34;98727.13;6967708;28;20214;-79
2022/07/23 03:00:07;;;;;;;4.33;3.93;;;;;;;27.85;40.03;98750.69;6955799;28;20204;-80
2022/07/23 03:03:28;;;;;;;4.30;4.00;;;;;;;28.04;39.86;98746.56;6969758;28;20293;-79
2022/07/23 03:06:51;;;;;;;4.10;3.80;;;;;;;28.12;39.57;98743.00;6971014;28;20225;-80
2022/07/23 03:10:13;;;;;;;4.57;3.80;;;;;;;28.35;39.35;98736.22;6962113;28;20238;-80
2022/07/23 03:13:35;;;;;;;4.17;3.77;;;;;;;28.36;38.83;98731.50;6948991;28;20381;-80
2022/07/23 03:16:56;;;;;;;4.40;4.07;;;;;;;28.00;39.32;98737.25;6949681;28;20260;-80
2022/07/23 03:20:18;;;;;;;4.53;4.23;;;;;;;28.33;39.09;98752.38;6948805;28;20235;-80
2022/07/23 03:23:41;;;;;;;4.07;3.50;;;;;;;28.49;39.01;98750.00;6952396;28;20222;-80
2022/07/23 03:27:02;;;;;;;4.20;3.80;;;;;;;28.39;39.17;98755.84;6951282;28;20580;-80
2022/07/23 03:30:24;;;;;;;4.40;4.10;;;;;;;28.36;39.29;98751.72;6950659;28;20680;-80
2022/07/23 03:33:45;;;;;;;4.43;4.03;;;;;;;28.46;39.01;98743.16;6950981;28;20214;-80
2022/07/23 03:37:07;;;;;;;5.77;3.83;;;;;;;28.25;39.56;98744.03;6951293;28;20208;-80
2022/07/23 03:40:30;;;;;;;4.57;3.90;;;;;;;28.47;39.01;98716.22;6951445;28;20243;-80
2022/07/23 03:43:51;;;;;;;4.73;4.00;;;;;;;28.79;38.10;98733.25;6950949;28;20213;-80
2022/07/23 03:47:13;;;;;;;4.73;4.33;;;;;;;28.12;39.40;98734.69;6950894;28;20209;-80
2022/07/23 03:50:37;;;;;;;4.63;4.20;;;;;;;28.30;39.65;98705.88;6949971;28;20230;-80
2022/07/23 03:53:58;;;;;;;4.73;4.20;;;;;;;28.14;39.74;98726.06;6951838;28;20204;-80
2022/07/23 03:57:21;;;;;;;5.40;4.30;;;;;;;27.83;40.46;98694.78;6951903;28;20250;-80
2022/07/23 04:00:43;;;;;;;4.83;4.33;;;;;;;28.17;39.91;98731.78;6953467;28;20238;-80
2022/07/23 04:04:04;;;;;;;4.87;4.40;;;;;;;27.96;40.85;98729.91;6950171;28;20239;-80
2022/07/23 04:07:26;;;;;;;5.20;4.40;;;;;;;28.19;40.28;98742.53;6949843;28;20232;-81
2022/07/23 04:10:48;;;;;;;4.47;4.17;;;;;;;28.11;40.62;98746.91;6949846;28;20236;-80
2022/07/23 04:14:10;;;;;;;5.57;4.50;;;;;;;27.68;41.32;98743.09;6950104;28;20245;-80
2022/07/23 04:17:32;;;;;;;4.63;4.20;;;;;;;27.97;40.86;98739.84;6950176;28;20203;-81
2022/07/23 04:20:54;;;;;;;4.73;4.23;;;;;;;28.11;40.95;98751.63;6949988;28;20220;-80
2022/07/23 04:24:15;;;;;;;5.10;4.60;;;;;;;28.10;41.21;98750.84;6949786;28;20211;-79
2022/07/23 04:27:37;;;;;;;4.77;4.27;;;;;;;28.17;41.04;98740.09;6945236;28;20286;-80
2022/07/23 04:31:00;;;;;;;4.77;4.37;;;;;;;28.07;41.09;98754.22;6946761;28;20822;-80
2022/07/23 04:34:21;;;;;;;4.70;4.30;;;;;;;28.11;41.69;98749.69;6948547;28;20196;-80
2022/07/23 04:37:43;;;;;;;6.60;4.90;;;;;;;28.12;41.21;98744.94;6949093;28;20266;-79
2022/07/23 04:41:05;;;;;;;8.13;4.87;;;;;;;28.13;41.42;98758.50;6949399;28;20286;-80
2022/07/23 04:44:26;;;;;;;4.57;4.10;;;;;;;27.83;41.86;98753.78;6949950;28;20279;-80
2022/07/23 04:47:49;;;;;;;4.83;4.43;;;;;;;27.61;42.06;98756.56;6948225;28;20225;-80
2022/07/23 04:51:11;;;;;;;5.30;4.30;;;;;;;26.89;43.14;98746.69;6949207;28;20230;-79
2022/07/23 04:54:33;;;;;;;4.60;4.30;;;;;;;27.27;42.54;98764.66;6949173;28;20691;-81
2022/07/23 04:57:54;;;;;;;5.27;4.87;;;;;;;28.27;40.75;98747.28;6948105;28;20201;-81
2022/07/23 05:01:16;;;;;;;5.23;4.73;;;;;;;28.19;40.90;98751.66;6949614;28;20954;-81
2022/07/23 05:04:39;;;;;;;4.90;4.50;;;;;;;28.65;40.51;98756.72;6949013;28;20741;-81
2022/07/23 05:08:00;;;;;;;5.00;4.60;;;;;;;28.77;40.57;98762.50;6948173;28;20307;-80
2022/07/23 05:11:22;;;;;;;4.37;4.07;;;;;;;28.49;41.83;98763.88;6948781;28;20233;-80
2022/07/23 05:14:43;;;;;;;5.00;4.57;;;;;;;28.59;41.41;98766.34;6949879;28;20252;-80
2022/07/23 05:18:05;;;;;;;4.73;4.27;;;;;;;28.05;42.56;98759.28;6951216;28;20241;-80
2022/07/23 05:21:28;;;;;;;5.03;4.43;;;;;;;28.42;41.96;98769.09;6955281;28;20700;-80
2022/07/23 05:24:49;;;;;;;5.20;4.57;;;;;;;28.68;41.17;98759.69;6954340;28;20208;-80
2022/07/23 05:28:11;;;;;;;5.43;4.87;;;;;;;28.83;40.25;98770.31;6953980;28;20217;-80
2022/07/23 05:31:34;;;;;;;5.27;4.47;;;;;;;28.99;40.31;98776.25;6954283;28;20306;-80
2022/07/23 05:34:55;;;;;;;7.70;5.10;;;;;;;28.57;40.86;98758.38;6954719;28;20211;-81
2022/07/23 05:38:18;;;;;;;5.20;4.70;;;;;;;28.30;42.23;98761.34;6953712;28;20250;-80
2022/07/23 05:41:39;;;;;;;5.57;5.07;;;;;;;28.51;42.14;98769.91;6954544;28;20221;-80
2022/07/23 05:45:01;;;;;;;7.93;5.30;;;;;;;29.24;41.59;98783.78;6953824;28;20289;-81
2022/07/23 05:48:23;;;;;;;5.30;4.83;;;;;;;29.42;41.07;98796.53;6953647;28;20204;-80
2022/07/23 05:51:45;;;;;;;6.33;5.07;;;;;;;29.04;42.04;98795.53;6953987;28;20310;-81
2022/07/23 05:55:09;;;;;;;6.23;5.60;;;;;;;29.04;41.19;98781.66;6952833;28;20204;-80
2022/07/23 05:58:54;;;;;;;6.33;5.73;;;;;;;28.35;40.81;98714.03;7031024;27;20560;-79
2022/07/23 06:02:16;;;;;;;6.30;5.73;;;;;;;29.02;40.96;98789.50;7031837;28;20562;-78
2022/07/23 06:05:37;;;;;;;5.63;5.13;;;;;;;28.23;40.48;98652.84;7031437;28;20241;-79
2022/07/23 06:09:00;;;;;;;6.30;5.70;;;;;;;28.75;41.57;98785.00;7031003;28;20218;-79
2022/07/23 06:12:21;;;;;;;6.70;5.43;;;;;;;28.44;42.91;98795.38;7031554;28;20565;-79
2022/07/23 06:15:44;;;;;;;5.90;5.40;;;;;;;28.37;42.40;98777.56;7031184;28;20220;-79
2022/07/23 06:19:06;;;;;;;6.00;5.40;;;;;;;28.07;42.55;98745.91;7030892;28;20265;-79
2022/07/23 06:22:28;;;;;;;6.67;5.80;;;;;;;27.96;43.20;98783.34;7030852;28;20204;-79
2022/07/23 06:25:50;;;;;;;5.47;4.97;;;;;;;27.61;43.48;98739.13;7031768;28;20208;-79
2022/07/23 06:29:11;;;;;;;5.67;5.17;;;;;;;28.26;41.95;98734.56;7025270;28;20228;-78
2022/07/23 06:32:35;;;;;;;6.10;4.93;;;;;;;28.77;41.45;98729.19;7030559;28;20205;-79
2022/07/23 06:35:56;;;;;;;6.53;5.37;;;;;;;29.16;40.66;98793.75;7030623;28;20237;-79
2022/07/23 06:39:18;;;;;;;6.10;5.53;;;;;;;28.88;40.94;98728.53;7030493;28;20206;-79
2022/07/23 06:42:40;;;;;;;5.53;4.83;;;;;;;29.68;39.81;98806.50;7030665;28;20213;-79
2022/07/23 06:46:01;;;;;;;6.67;5.20;;;;;;;29.81;39.68;98805.50;7030226;28;20225;-79
2022/07/23 06:49:24;;;;;;;5.97;5.17;;;;;;;29.68;38.66;98741.75;7030124;28;20210;-79
2022/07/23 06:52:46;;;;;;;5.80;5.23;;;;;;;29.66;39.42;98755.97;7030432;28;20220;-79
2022/07/23 06:56:08;;;;;;;5.83;5.00;;;;;;;29.09;39.38;98745.38;7030155;28;20237;-79
2022/07/23 06:59:30;;;;;;;5.40;4.90;;;;;;;29.59;39.20;98758.44;7029944;28;20211;-79
2022/07/23 07:02:52;;;;;;;5.67;5.00;;;;;;;29.71;38.32;98744.69;7030156;28;20229;-79
2022/07/23 07:06:15;;;;;;;5.27;4.87;;;;;;;29.82;36.61;98786.84;7029994;28;20202;-79
2022/07/23 07:09:37;;;;;;;4.87;4.47;;;;;;;30.21;36.37;98845.84;7014263;28;20202;-79
2022/07/23 07:12:59;;;;;;;6.23;5.50;;;;;;;30.16;36.92;98850.75;7011796;28;20220;-79
2022/07/23 07:16:20;;;;;;;5.57;5.03;;;;;;;29.59;37.90;98844.59;7011539;28;20228;-79
2022/07/23 07:19:42;;;;;;;6.67;4.70;;;;;;;29.20;38.59;98864.16;7011428;28;20212;-79
2022/07/23 07:23:05;;;;;;;5.80;5.30;;;;;;;28.45;40.31;98846.09;7011100;28;20231;-79
2022/07/23 07:26:27;;;;;;;5.83;5.23;;;;;;;28.74;39.87;98826.97;7011800;28;20202;-79
2022/07/23 07:29:49;;;;;;;5.57;5.07;;;;;;;28.52;40.96;98880.59;7010422;28;20211;-79
2022/07/23 07:33:10;;;;;;;7.10;5.97;;;;;;;28.41;41.10;98882.00;7010408;28;20209;-79
2022/07/23 07:36:32;;;;;;;10.43;6.40;;;;;;;28.82;40.96;98874.16;7010552;28;20229;-79
2022/07/23 07:39:55;;;;;;;7.57;5.90;;;;;;;28.59;41.42;98875.38;7010541;28;20217;-79
2022/07/23 07:43:17;;;;;;;7.37;6.10;;;;;;;27.68;42.27;98797.69;7010393;28;20205;-79
2022/07/23 07:46:38;;;;;;;8.43;6.13;;;;;;;28.27;42.22;98867.38;7010081;28;20229;-79
2022/07/23 07:50:00;;;;;;;9.50;6.37;;;;;;;28.33;41.76;98809.81;7010041;28;20211;-79
2022/07/23 07:53:22;;;;;;;9.33;6.70;;;;;;;28.40;41.86;98863.72;7010300;28;20214;-79
2022/07/23 07:56:45;;;;;;;8.77;6.50;;;;;;;28.69;42.20;98864.00;7009751;28;20608;-79
2022/07/23 08:00:08;;;;;;;7.30;6.60;;;;;;;28.72;42.65;98882.78;7010024;28;20269;-79
2022/07/23 08:03:30;;;;;;;7.73;6.90;;;;;;;28.34;42.83;98789.25;7009586;28;20207;-79
2022/07/23 08:06:52;;;;;;;7.20;6.50;;;;;;;28.79;41.94;98907.31;7009930;28;20231;-79
2022/07/23 08:10:14;;;;;;;6.93;6.20;;;;;;;29.03;41.94;98916.91;7008220;28;20213;-79
2022/07/23 08:13:37;;;;;;;7.30;6.50;;;;;;;28.74;42.09;98860.25;7009974;28;20210;-79
2022/07/23 08:16:58;;;;;;;7.80;6.17;;;;;;;29.87;40.35;98932.09;7009989;28;20232;-78
2022/07/23 08:20:22;;;;;;;10.10;6.83;;;;;;;29.05;40.67;98889.63;7008317;28;20216;-79
2022/07/23 08:23:44;;;;;;;6.83;5.63;;;;;;;28.86;41.17;98910.44;7009731;28;20691;-79
2022/07/23 08:27:05;;;;;;;6.90;5.87;;;;;;;30.05;39.13;98932.88;7009608;28;20198;-79
2022/07/23 08:30:29;;;;;;;6.93;6.20;;;;;;;29.30;39.67;98863.84;7002664;28;20209;-79
2022/07/23 08:33:52;;;;;;;6.63;6.00;;;;;;;30.01;39.78;98929.94;7009313;28;20217;-80
2022/07/23 08:37:13;;;;;;;9.77;6.40;;;;;;;29.63;40.11;98867.00;7009109;28;20290;-80
2022/07/23 08:40:37;;;;;;;7.40;6.67;;;;;;;28.78;41.22;98866.81;7008018;28;20591;-79
2022/07/23 08:44:00;;;;;;;7.00;6.40;;;;;;;28.80;40.88;98845.94;7008489;28;20683;-79
2022/07/23 08:47:23;;;;;;;6.47;5.90;;;;;;;29.17;40.97;98892.59;7008266;28;20225;-79
2022/07/23 08:50:46;;;;;;;6.40;5.90;;;;;;;30.01;38.41;98902.13;7008442;28;20702;-79
2022/07/23 08:54:08;;;;;;;7.10;6.40;;;;;;;29.11;42.31;98862.50;7008661;28;20665;-79
2022/07/23 08:57:30;;;;;;;7.30;6.50;;;;;;;28.63;44.11;98861.69;7008106;28;20236;-79
2022/07/23 09:00:52;;;;;;;8.33;6.63;;;;;;;28.96;44.04;98844.34;7007864;28;20208;-79
2022/07/23 09:04:15;;;;;;;6.33;5.73;;;;;;;29.66;41.20;98908.84;7007982;28;20217;-79
2022/07/23 09:07:37;;;;;;;7.00;6.40;;;;;;;31.28;37.64;98888.97;7007653;28;20205;-79
2022/07/23 09:11:00;;;;;;;5.90;5.40;;;;;;;30.85;37.26;98891.16;7007804;28;20211;-80
2022/07/23 09:14:37;;;;;;;7.23;5.93;;;;;;;31.17;37.53;98849.50;7008113;28;20212;-79
2022/07/23 09:17:59;;;;;;;6.13;5.63;;;;;;;31.20;36.84;98912.13;7008212;28;20228;-79
2022/07/23 09:21:24;;;;;;;6.43;5.83;;;;;;;31.38;35.80;98847.56;7008004;28;20209;-79
2022/07/23 09:25:08;;;;;;;6.00;5.53;;;;;;;32.19;35.68;98898.88;7008269;28;20200;-79
2022/07/23 09:28:29;;;;;;;6.23;5.47;;;;;;;31.50;35.95;98905.38;7007556;28;20200;-79
2022/07/23 09:31:52;;;;;;;6.13;5.43;;;;;;;31.40;35.45;98831.34;7007074;28;20665;-80
2022/07/23 09:35:14;;;;;;;5.90;5.40;;;;;;;31.12;36.61;98905.41;7008048;28;20210;-80
2022/07/23 09:38:48;;;;;;;5.83;5.33;;;;;;;30.09;37.67;98886.59;7007662;28;20233;-80
2022/07/23 09:42:14;;;;;;;5.10;4.70;;;;;;;31.90;34.71;98879.47;7007369;28;20205;-80
2022/07/23 09:45:39;;;;;;;6.40;5.23;;;;;;;32.85;32.94;98869.75;7007821;28;20692;-80
2022/07/23 09:49:11;;;;;;;6.10;5.50;;;;;;;33.22;32.04;98854.59;7007315;28;20212;-80
2022/07/23 09:52:34;;;;;;;5.30;4.80;;;;;;;33.64;31.15;98819.56;7008137;28;20593;-80
2022/07/23 09:55:59;;;;;;;6.03;5.53;;;;;;;33.68;30.45;98817.69;7007249;28;20213;-80
2022/07/23 09:59:24;;;;;;;5.53;5.13;;;;;;;34.05;31.08;98889.13;7006818;28;20221;-80
2022/07/23 10:02:47;;;;;;;5.77;5.27;;;;;;;33.77;30.29;98831.53;7007148;28;20292;-80
2022/07/23 10:06:09;;;;;;;5.07;4.60;;;;;;;34.66;29.63;98893.25;7006858;28;20213;-80
2022/07/23 10:09:32;;;;;;;4.90;4.50;;;;;;;34.13;29.60;98825.78;7007199;28;20202;-80
2022/07/23 10:13:19;;;;;;;5.43;4.80;;;;;;;33.50;29.55;98840.69;7007520;28;20217;-80
2022/07/23 10:16:43;;;;;;;5.13;4.73;;;;;;;33.96;29.97;98882.06;7007735;28;20210;-80
2022/07/23 10:20:05;;;;;;;4.83;4.20;;;;;;;33.84;29.10;98818.56;7007265;28;20693;-80
2022/07/23 10:23:32;;;;;;;4.90;4.37;;;;;;;32.93;29.98;98787.81;7007853;28;20206;-79
2022/07/23 10:27:05;;;;;;;5.50;4.77;;;;;;;34.06;28.83;98837.59;7007609;28;20212;-78
2022/07/23 10:30:36;;;;;;;4.73;4.33;;;;;;;34.43;27.84;98883.81;7004292;28;20202;-77
2022/07/23 10:34:03;;;;;;;5.10;4.27;;;;;;;34.56;28.33;98865.78;7007203;28;20210;-77
2022/07/23 10:37:30;;;;;;;4.60;4.10;;;;;;;34.55;28.00;98883.75;7007517;28;20279;-77
2022/07/23 10:40:59;;;;;;;4.83;4.43;;;;;;;33.92;28.57;98834.41;7007530;28;20210;-78
2022/07/23 10:44:23;;;;;;;4.80;4.40;;;;;;;34.98;26.62;98799.63;7010203;28;20216;-77
2022/07/23 10:47:51;;;;;;;4.63;4.23;;;;;;;33.36;28.70;98827.09;7011735;28;20317;-77
2022/07/23 10:51:15;;;;;;;4.60;4.30;;;;;;;34.48;28.00;98809.94;7011996;28;20220;-77
2022/07/23 10:54:37;;;;;;;4.30;4.00;;;;;;;34.80;26.80;98876.03;7012482;28;20210;-77
2022/07/23 10:58:07;;;;;;;4.30;4.00;;;;;;;34.87;26.84;98798.56;7011532;28;20289;-78
2022/07/23 11:01:39;;;;;;;4.87;4.00;;;;;;;33.98;28.02;98832.16;7012369;28;20198;-78
2022/07/23 11:05:07;;;;;;;5.27;4.60;;;;;;;34.53;27.65;98863.69;7011821;28;20565;-78
2022/07/23 11:08:29;;;;;;;4.73;4.43;;;;;;;32.73;28.81;98799.09;7011546;28;20213;-79
2022/07/23 11:11:50;;;;;;;5.03;4.57;;;;;;;33.72;28.70;98818.59;7011326;28;20217;-80
2022/07/23 11:15:14;;;;;;;4.67;4.27;;;;;;;32.13;30.07;98836.06;7011645;28;20216;-80
2022/07/23 11:19:22;;;;;;;4.73;4.40;;;;;;;33.76;28.44;98855.88;7010947;28;20521;-80
2022/07/23 11:23:03;;;;;;;4.20;3.90;;;;;;;33.49;28.60;98808.31;7011272;28;20205;-80
2022/07/23 11:26:51;;;;;;;4.10;3.80;;;;;;;35.01;27.01;98821.31;7009460;28;20242;-80
2022/07/23 11:30:42;;;;;;;4.87;4.40;;;;;;;35.23;26.57;98843.09;6976054;28;20206;-80
2022/07/23 11:34:41;;;;;;;4.63;4.23;;;;;;;33.80;28.82;98854.03;7011767;28;20214;-80
2022/07/23 11:38:32;;;;;;;6.03;4.70;;;;;;;34.67;28.06;98860.47;7010380;28;20289;-80
2022/07/23 11:52:56;;;;;;;5.93;4.30;;;;;;;33.35;29.59;98847.84;7123028;22;20301;-82
2022/07/23 11:56:19;;;;;;;4.70;4.30;;;;;;;33.89;29.36;98837.91;6952360;28;20215;-81
2022/07/23 11:59:40;;;;;;;4.70;4.30;;;;;;;35.35;27.43;98847.75;6951325;28;20320;-81
2022/07/23 12:03:03;;;;;;;5.00;4.60;;;;;;;33.85;29.22;98828.59;6952576;28;20246;-81
2022/07/23 12:06:25;;;;;;;4.90;4.50;;;;;;;34.69;28.18;98847.72;6952700;28;20203;-81
2022/07/23 12:09:47;;;;;;;5.57;4.90;;;;;;;35.32;27.82;98843.69;6951766;28;20207;-81
2022/07/23 12:13:11;;;;;;;5.17;4.77;;;;;;;32.87;30.28;98838.66;6952625;28;20234;-81
2022/07/23 12:16:33;;;;;;;4.90;4.50;;;;;;;33.44;30.05;98836.53;6951744;28;20199;-82
2022/07/23 12:19:55;;;;;;;5.33;4.93;;;;;;;33.14;29.93;98837.97;6951132;28;20227;-82
2022/07/23 12:23:18;;;;;;;5.47;4.93;;;;;;;33.66;29.64;98834.00;6951451;28;20247;-82
2022/07/23 12:26:40;;;;;;;4.90;4.50;;;;;;;34.02;29.15;98828.28;6951031;28;20249;-82
2022/07/23 12:30:19;;;;;;;5.23;4.40;;;;;;;34.56;28.28;98828.56;6951167;28;20264;-81
2022/07/23 12:33:41;;;;;;;4.80;4.40;;;;;;;34.63;28.55;98828.72;6923542;28;20207;-81
2022/07/23 12:37:02;;;;;;;4.80;4.50;;;;;;;34.68;27.78;98834.88;6924547;28;20204;-82
2022/07/23 12:40:29;;;;;;;5.03;4.63;;;;;;;34.12;28.61;98847.34;6923858;28;20246;-81
2022/07/23 12:43:51;;;;;;;4.40;4.10;;;;;;;35.48;27.33;98836.03;6924595;28;20215;-81
2022/07/23 12:47:13;;;;;;;5.13;4.63;;;;;;;36.00;26.76;98838.34;6925223;28;20679;-81
2022/07/23 12:50:49;;;;;;;5.07;4.57;;;;;;;35.17;26.66;98824.06;6923517;28;20243;-81
2022/07/23 12:54:10;;;;;;;4.80;4.40;;;;;;;35.75;26.46;98834.25;6924147;28;20196;-81
2022/07/23 12:57:46;;;;;;;4.73;4.33;;;;;;;33.99;27.98;98803.81;6923358;28;20669;-81
2022/07/23 13:01:07;;;;;;;4.73;4.33;;;;;;;35.86;26.54;98829.66;6924577;28;20246;-81
2022/07/23 13:04:31;;;;;;;5.40;4.97;;;;;;;34.53;27.00;98841.28;6923966;28;20208;-81
2022/07/23 13:07:52;;;;;;;5.13;4.60;;;;;;;35.04;27.18;98845.81;6922357;28;20218;-81
2022/07/23 13:11:14;;;;;;;5.43;4.93;;;;;;;33.53;28.62;98831.59;6923533;28;20220;-82
2022/07/23 13:14:35;;;;;;;5.20;4.70;;;;;;;34.19;28.91;98822.34;6924395;28;20258;-81
2022/07/23 13:17:57;;;;;;;5.13;4.63;;;;;;;34.00;29.25;98833.41;6923031;28;20263;-81
2022/07/23 13:21:20;;;;;;;6.53;4.50;;;;;;;34.48;28.56;98843.56;6923121;28;20314;-81
2022/07/23 13:24:41;;;;;;;5.20;4.80;;;;;;;34.10;28.77;98846.91;6922968;28;20294;-81
2022/07/23 13:28:03;;;;;;;5.60;5.03;;;;;;;33.37;30.07;98770.00;6922580;28;20231;-81
2022/07/23 13:31:25;;;;;;;5.40;5.00;;;;;;;34.65;28.73;98835.59;6922124;28;20617;-81
2022/07/23 13:34:47;;;;;;;5.93;5.40;;;;;;;35.26;27.62;98833.13;6923206;28;20211;-81
2022/07/23 13:38:09;;;;;;;5.73;5.23;;;;;;;33.72;29.27;98832.56;6922349;28;20381;-82
2022/07/23 13:41:31;;;;;;;5.63;5.10;;;;;;;34.78;28.27;98841.97;6922980;28;20334;-81
2022/07/23 13:44:53;;;;;;;6.07;5.57;;;;;;;35.35;27.49;98808.50;6923483;28;20207;-82
2022/07/23 13:48:15;;;;;;;5.90;5.40;;;;;;;34.79;28.08;98841.56;6922505;28;20293;-83
2022/07/23 13:51:37;;;;;;;5.53;5.10;;;;;;;34.00;29.68;98847.41;6922782;28;20246;-81
2022/07/23 13:55:01;;;;;;;5.73;4.93;;;;;;;34.04;28.61;98839.94;6923509;28;20223;-82
2022/07/23 13:58:22;;;;;;;5.70;5.20;;;;;;;34.50;27.66;98827.19;6922853;28;20231;-82
2022/07/23 14:01:45;;;;;;;5.50;5.00;;;;;;;33.98;28.12;98802.19;6928122;28;20235;-81
2022/07/23 14:05:08;;;;;;;5.53;5.03;;;;;;;34.89;26.83;98824.22;6927478;28;20222;-81
2022/07/23 14:08:29;;;;;;;5.80;5.30;;;;;;;35.30;26.56;98823.63;6925984;28;20215;-81
2022/07/23 14:11:52;;;;;;;5.83;5.23;;;;;;;35.11;26.60;98800.31;6925707;28;20319;-81
2022/07/23 14:15:14;;;;;;;6.17;5.57;;;;;;;35.35;27.05;98806.50;6926398;28;20223;-81
2022/07/23 14:18:36;;;;;;;7.57;6.00;;;;;;;34.57;27.88;98814.19;6926257;28;20255;-81
2022/07/23 14:21:58;;;;;;;6.07;5.40;;;;;;;34.72;27.88;98810.56;6930354;28;20251;-81
2022/07/23 14:25:20;;;;;;;5.93;5.43;;;;;;;34.59;28.13;98806.22;6929736;28;20677;-81
2022/07/23 14:28:42;;;;;;;9.10;6.17;;;;;;;34.90;27.83;98817.44;6929312;28;20303;-81
2022/07/23 14:32:07;;;;;;;6.50;5.80;;;;;;;34.81;27.72;98802.00;6928705;28;20230;-82
2022/07/23 14:35:29;;;;;;;7.17;6.57;;;;;;;34.11;28.79;98822.50;6929961;28;20265;-81
2022/07/23 14:38:50;;;;;;;7.03;6.20;;;;;;;33.62;29.20;98759.56;6929426;28;20285;-81
2022/07/23 14:42:12;;;;;;;6.50;5.80;;;;;;;34.76;28.19;98810.66;6928876;28;20224;-81
2022/07/23 14:45:35;;;;;;;6.07;5.57;;;;;;;35.27;27.36;98810.34;6929463;28;20231;-81
2022/07/23 14:48:57;;;;;;;7.27;5.97;;;;;;;35.24;27.42;98818.66;6929238;28;20668;-81
2022/07/23 14:52:18;;;;;;;7.03;6.30;;;;;;;34.38;28.79;98804.88;6928993;28;20244;-82
2022/07/23 14:55:40;;;;;;;7.13;5.90;;;;;;;34.20;28.40;98811.97;6930392;28;20235;-81
2022/07/23 14:59:02;;;;;;;6.63;5.20;;;;;;;34.22;28.33;98807.66;6928855;28;20316;-81
2022/07/23 15:02:25;;;;;;;6.10;5.60;;;;;;;34.05;27.99;98807.97;6929885;28;20234;-81
2022/07/23 15:05:46;;;;;;;5.70;5.30;;;;;;;35.09;26.26;98802.66;6929848;28;20211;-81
2022/07/23 15:09:08;;;;;;;5.90;5.40;;;;;;;34.12;27.61;98805.38;6928236;28;20204;-81
2022/07/23 15:12:30;;;;;;;5.37;4.87;;;;;;;34.71;27.14;98797.72;6928558;28;20224;-81
2022/07/23 15:15:51;;;;;;;6.43;5.57;;;;;;;33.59;28.12;98805.81;6929424;28;20292;-81
2022/07/23 15:19:14;;;;;;;6.53;4.97;;;;;;;34.55;27.44;98802.53;6927874;28;20224;-81
2022/07/23 15:22:36;;;;;;;6.13;5.53;;;;;;;35.13;26.30;98781.94;6928723;28;20231;-81
2022/07/23 15:25:58;;;;;;;6.33;5.73;;;;;;;35.09;25.66;98806.28;6929515;28;20254;-81
2022/07/23 15:29:20;;;;;;;6.20;5.60;;;;;;;34.78;25.79;98805.53;6928209;28;20226;-81
2022/07/23 15:32:42;;;;;;;6.67;6.07;;;;;;;34.12;26.96;98810.97;6928523;28;20238;-82
2022/07/23 15:36:06;;;;;;;6.13;5.63;;;;;;;34.08;27.62;98815.63;6929984;28;20185;-81
2022/07/23 15:39:27;;;;;;;6.23;5.10;;;;;;;34.66;26.71;98795.19;6929066;28;20228;-81
2022/07/23 15:42:49;;;;;;;5.77;5.30;;;;;;;35.57;25.46;98803.00;6929853;28;20226;-81
2022/07/23 15:46:11;;;;;;;5.83;5.40;;;;;;;33.67;28.10;98804.06;6930269;28;20204;-81
2022/07/23 15:49:32;;;;;;;6.43;5.83;;;;;;;34.06;28.59;98814.38;6929000;28;20236;-81
2022/07/23 15:52:55;;;;;;;6.93;6.23;;;;;;;33.69;28.32;98802.53;6929633;28;20374;-81
2022/07/23 15:56:17;;;;;;;6.10;5.70;;;;;;;34.11;28.12;98805.72;6929510;28;20295;-81
2022/07/23 15:59:38;;;;;;;7.00;6.30;;;;;;;33.69;28.63;98793.31;6929162;28;20358;-81
2022/07/23 16:03:00;;;;;;;6.03;5.53;;;;;;;34.36;27.16;98779.25;6929647;28;20227;-81
2022/07/23 16:06:22;;;;;;;7.50;5.67;;;;;;;33.19;28.42;98759.47;6930164;28;20668;-81
2022/07/23 16:09:45;;;;;;;6.27;5.73;;;;;;;34.01;27.40;98787.47;6929843;28;20220;-81